createdAt,value
2023-03-15T00:00:33.034Z,45.40
2023-03-15T00:04:18.924Z,45.00
2023-03-15T00:07:46.084Z,39.30
2023-03-15T00:11:13.284Z,41.60
2023-03-15T00:14:40.891Z,38.40
2023-03-15T00:18:08.158Z,36.30
2023-03-15T00:21:35.316Z,35.90
2023-03-15T00:25:02.417Z,39.80
2023-03-15T00:28:29.747Z,31.00
2023-03-15T00:31:56.860Z,36.60
2023-03-15T00:35:25.055Z,40.80
2023-03-15T00:38:53.424Z,45.20
2023-03-15T00:42:20.487Z,35.80
2023-03-15T00:45:49.198Z,29.70
2023-03-15T00:49:16.190Z,29.60
2023-03-15T00:52:43.186Z,29.70
2023-03-15T00:56:12.242Z,24.30
2023-03-15T00:59:39.281Z,27.80
2023-03-15T01:03:07.715Z,29.00
2023-03-15T01:06:35.042Z,34.80
2023-03-15T01:10:02.665Z,37.60
2023-03-15T01:13:30.596Z,33.50
2023-03-15T01:16:57.668Z,42.30
2023-03-15T01:20:25.013Z,37.10
2023-03-15T01:23:52.704Z,37.50
2023-03-15T01:27:21.884Z,41.40
2023-03-15T01:30:53.845Z,44.10
2023-03-15T01:34:22.766Z,39.80
2023-03-15T01:37:52.069Z,34.30
2023-03-15T01:41:20.795Z,30.50
2023-03-15T01:44:56.804Z,31.30
2023-03-15T01:48:27.839Z,28.50
2023-03-15T01:51:59.583Z,28.70
2023-03-15T01:55:33.787Z,33.70
2023-03-15T01:59:11.742Z,40.40
2023-03-15T02:02:40.755Z,39.90
2023-03-15T02:06:11.004Z,45.50
2023-03-15T02:09:49.746Z,43.40
2023-03-15T02:13:22.818Z,61.00
2023-03-15T02:16:53.534Z,56.70
2023-03-15T02:20:33.415Z,50.70
2023-03-15T02:27:32.428Z,213.70
2023-03-15T02:31:00.160Z,95.10
2023-03-15T02:34:30.186Z,50.60
2023-03-15T02:37:57.448Z,43.80
2023-03-15T02:41:29.661Z,39.30
2023-03-15T02:44:57.773Z,49.50
2023-03-15T02:48:25.015Z,55.30
2023-03-15T02:51:52.434Z,42.70
2023-03-15T02:55:21.888Z,33.70
2023-03-15T03:02:15.471Z,16.00
2023-03-15T03:05:43.375Z,15.20
2023-03-15T03:09:10.664Z,15.50
2023-03-15T03:12:38.564Z,15.80
2023-03-15T03:16:06.169Z,22.70
2023-03-15T03:19:33.372Z,18.00
2023-03-15T03:23:05.907Z,16.30
2023-03-15T03:26:33.370Z,22.40
2023-03-15T03:30:01.645Z,19.20
2023-03-15T03:33:29.526Z,18.10
2023-03-15T03:36:57.124Z,19.80
2023-03-15T03:40:38.991Z,16.40
2023-03-15T03:44:06.727Z,13.60
2023-03-15T03:47:34.444Z,25.70
2023-03-15T03:51:01.787Z,25.70
2023-03-15T03:54:29.463Z,26.40
2023-03-15T03:57:57.344Z,15.70
2023-03-15T04:01:36.269Z,18.10
2023-03-15T04:05:03.600Z,19.50
2023-03-15T04:08:31.204Z,26.00
2023-03-15T04:11:58.922Z,18.70
2023-03-15T04:15:26.842Z,27.60
2023-03-15T04:18:57.604Z,17.50
2023-03-15T04:22:25.371Z,14.60
2023-03-15T04:26:06.774Z,14.10
2023-03-15T04:29:52.669Z,10.80
2023-03-15T04:33:46.356Z,20.10
2023-03-15T04:37:36.456Z,20.00
2023-03-15T04:41:21.638Z,15.10
2023-03-15T04:45:00.988Z,12.80
2023-03-15T04:48:39.217Z,13.50
2023-03-15T04:52:29.634Z,13.80
2023-03-15T04:56:15.300Z,11.80
2023-03-15T05:00:12.201Z,14.00
2023-03-15T05:03:51.298Z,19.60
2023-03-15T05:07:47.370Z,10.30
2023-03-15T05:11:28.429Z,10.50
2023-03-15T05:15:29.559Z,12.20
2023-03-15T05:19:12.170Z,12.30
2023-03-15T05:22:47.140Z,14.80
2023-03-15T05:26:32.719Z,11.80
2023-03-15T05:30:17.277Z,20.30
2023-03-15T05:34:04.420Z,15.70
2023-03-15T05:37:50.119Z,8.80
2023-03-15T05:41:53.032Z,18.50
2023-03-15T05:45:44.734Z,16.50
2023-03-15T05:49:27.379Z,11.50
2023-03-15T05:53:09.996Z,17.80
2023-03-15T05:57:00.621Z,18.60
2023-03-15T06:00:44.142Z,13.30
2023-03-15T06:04:17.488Z,13.40
2023-03-15T06:07:46.346Z,9.20
2023-03-15T06:11:14.439Z,14.00
2023-03-15T06:14:41.799Z,17.10
2023-03-15T06:18:09.607Z,12.50
2023-03-15T06:21:37.007Z,12.20
2023-03-15T06:25:11.518Z,15.80
2023-03-15T06:28:40.058Z,14.70
2023-03-15T06:32:08.372Z,17.90
2023-03-15T06:35:38.146Z,13.60
2023-03-15T06:39:05.747Z,15.00
2023-03-15T06:42:32.894Z,13.00
2023-03-15T06:46:00.440Z,90.50
2023-03-15T06:49:28.239Z,99.10
2023-03-15T06:52:55.445Z,34.50
2023-03-15T06:56:23.071Z,19.50
2023-03-15T06:59:50.861Z,27.50
2023-03-15T07:03:19.335Z,36.90
2023-03-15T07:06:46.465Z,23.80
2023-03-15T07:10:14.632Z,17.00
2023-03-15T07:13:42.256Z,21.90
2023-03-15T07:17:09.781Z,42.90
2023-03-15T07:20:37.866Z,35.80
2023-03-15T07:24:05.510Z,22.10
2023-03-15T07:27:32.592Z,23.40
2023-03-15T07:31:01.788Z,17.90
2023-03-15T07:34:29.140Z,13.50
2023-03-15T07:37:56.359Z,21.30
2023-03-15T07:41:23.418Z,33.70
2023-03-15T07:45:06.132Z,41.50
2023-03-15T07:48:33.449Z,51.30
2023-03-15T07:52:00.543Z,47.70
2023-03-15T07:55:28.205Z,21.90
2023-03-15T07:58:55.226Z,41.90
2023-03-15T08:02:22.299Z,32.80
2023-03-15T08:05:51.796Z,34.20
2023-03-15T08:09:18.788Z,19.30
2023-03-15T08:12:46.150Z,29.40
2023-03-15T08:16:13.250Z,25.10
2023-03-15T08:19:40.583Z,23.30
2023-03-15T08:23:09.182Z,19.30
2023-03-15T08:26:36.303Z,8.90
2023-03-15T08:30:03.700Z,10.90
2023-03-15T08:33:31.903Z,21.30
2023-03-15T08:36:59.109Z,22.70
2023-03-15T08:40:26.452Z,17.70
2023-03-15T08:43:53.725Z,12.80
2023-03-15T08:47:20.837Z,14.10
2023-03-15T08:50:48.017Z,11.50
2023-03-15T08:54:15.469Z,23.70
2023-03-15T08:57:43.955Z,28.00
2023-03-15T09:01:13.790Z,20.20
2023-03-15T09:08:06.696Z,24.70
2023-03-15T09:11:33.826Z,21.40
2023-03-15T09:15:01.091Z,46.00
2023-03-15T09:18:28.568Z,98.20
2023-03-15T09:21:59.450Z,8.90
2023-03-15T09:25:30.692Z,8.50
2023-03-15T09:28:58.696Z,16.70
2023-03-15T09:32:29.034Z,13.00
2023-03-15T09:35:56.611Z,13.40
2023-03-15T09:39:24.822Z,10.40
2023-03-15T09:43:05.387Z,14.00
2023-03-15T09:46:35.263Z,10.50
2023-03-15T09:50:07.627Z,11.80
2023-03-15T09:53:41.468Z,10.10
2023-03-15T09:57:16.693Z,9.10
2023-03-15T10:00:47.736Z,8.60
2023-03-15T10:04:24.855Z,8.70
2023-03-15T10:07:52.414Z,12.10
2023-03-15T10:11:26.834Z,11.60
2023-03-15T10:15:25.711Z,12.20
2023-03-15T10:19:03.795Z,12.40
2023-03-15T10:22:35.496Z,15.10
2023-03-15T10:26:05.289Z,12.70
2023-03-15T10:29:32.984Z,11.00
2023-03-15T10:33:05.398Z,11.70
2023-03-15T10:36:32.527Z,9.60
2023-03-15T10:40:01.450Z,9.80
2023-03-15T10:43:32.303Z,13.20
2023-03-15T10:47:21.974Z,8.00
2023-03-15T10:50:52.059Z,9.10
2023-03-15T10:54:21.378Z,5.70
2023-03-15T10:57:56.937Z,7.60
2023-03-15T11:01:30.085Z,5.10
2023-03-15T11:05:14.767Z,6.60
2023-03-15T11:08:43.254Z,5.30
2023-03-15T11:12:19.340Z,7.10
2023-03-15T11:16:04.250Z,7.20
2023-03-15T11:19:35.540Z,9.80
2023-03-15T11:23:07.150Z,5.10
2023-03-15T11:26:38.655Z,7.80
2023-03-15T11:30:06.665Z,6.40
2023-03-15T11:33:44.997Z,5.70
2023-03-15T11:37:20.962Z,4.40
2023-03-15T11:40:52.843Z,8.70
2023-03-15T11:44:28.625Z,4.80
2023-03-15T11:47:58.592Z,6.90
2023-03-15T11:51:25.754Z,11.20
2023-03-15T11:54:55.653Z,9.20
2023-03-15T12:02:22.405Z,27.40
2023-03-15T12:05:52.703Z,30.80
2023-03-15T12:09:49.159Z,21.40
2023-03-15T12:13:30.966Z,13.30
2023-03-15T12:17:40.473Z,7.20
2023-03-15T12:21:15.896Z,8.70
2023-03-15T12:24:45.605Z,14.20
2023-03-15T12:28:23.733Z,3.70
2023-03-15T12:32:01.116Z,4.30
2023-03-15T12:35:39.637Z,6.00
2023-03-15T12:39:38.369Z,5.60
2023-03-15T12:43:05.787Z,6.50
2023-03-15T12:46:55.907Z,7.60
2023-03-15T12:50:53.154Z,7.60
2023-03-15T12:54:22.442Z,8.60
2023-03-15T12:57:54.043Z,8.20
2023-03-15T13:01:25.976Z,15.90
2023-03-15T13:05:03.652Z,11.70
2023-03-15T13:08:41.628Z,9.30
2023-03-15T13:12:15.442Z,8.30
2023-03-15T13:15:46.307Z,3.80
2023-03-15T13:19:22.955Z,6.20
2023-03-15T13:22:58.797Z,14.80
2023-03-15T13:26:37.738Z,12.20
2023-03-15T13:30:25.918Z,8.80
2023-03-15T13:33:57.540Z,7.50
2023-03-15T13:37:27.100Z,6.70
2023-03-15T13:40:54.464Z,13.80
2023-03-15T13:44:25.269Z,14.90
2023-03-15T13:47:52.568Z,8.10
2023-03-15T13:51:25.521Z,8.10
2023-03-15T13:54:55.554Z,5.60
2023-03-15T14:01:54.509Z,10.00
2023-03-15T14:05:27.611Z,7.00
2023-03-15T14:09:01.101Z,12.80
2023-03-15T14:12:33.385Z,21.70
2023-03-15T14:16:03.310Z,10.50
2023-03-15T14:19:34.065Z,7.00
2023-03-15T14:23:04.259Z,9.90
2023-03-15T14:26:32.475Z,5.60
2023-03-15T14:30:02.147Z,10.20
2023-03-15T14:33:34.621Z,12.20
2023-03-15T14:37:04.433Z,79.40
2023-03-15T14:44:04.154Z,93.90
2023-03-15T14:47:31.339Z,35.00
2023-03-15T14:50:59.111Z,73.80
2023-03-15T14:54:26.578Z,71.10
2023-03-15T14:57:53.838Z,370.30
2023-03-15T15:01:25.210Z,480.50
2023-03-15T15:04:52.579Z,391.40
2023-03-15T15:08:22.795Z,244.10
2023-03-15T15:11:49.896Z,88.30
2023-03-15T15:15:21.641Z,59.90
2023-03-15T15:18:48.879Z,30.90
2023-03-15T15:22:15.919Z,18.90
2023-03-15T15:25:44.883Z,14.60
2023-03-15T15:29:16.283Z,13.70
2023-03-15T15:32:45.138Z,11.60
2023-03-15T15:36:19.383Z,12.80
2023-03-15T15:39:47.614Z,8.40
2023-03-15T15:43:14.773Z,12.80
2023-03-15T15:46:41.937Z,12.10
2023-03-15T15:50:12.914Z,8.20
2023-03-15T15:53:39.960Z,10.30
2023-03-15T15:57:08.773Z,14.30
2023-03-15T16:00:37.106Z,8.30
2023-03-15T16:04:05.519Z,9.60
2023-03-15T16:07:34.390Z,6.50
2023-03-15T16:11:02.353Z,11.60
2023-03-15T16:14:31.537Z,11.90
2023-03-15T16:18:01.171Z,14.80
2023-03-15T16:21:34.770Z,12.20
2023-03-15T16:25:03.535Z,13.10
2023-03-15T16:28:33.106Z,15.10
2023-03-15T16:32:10.168Z,10.30
2023-03-15T16:35:42.117Z,9.80
2023-03-15T16:39:11.510Z,8.50
2023-03-15T16:42:38.915Z,9.00
2023-03-15T16:46:16.705Z,8.00
2023-03-15T16:49:43.757Z,9.50
2023-03-15T16:53:13.730Z,7.50
2023-03-15T16:56:40.970Z,9.70
2023-03-15T17:00:12.806Z,11.30
2023-03-15T17:03:40.197Z,13.40
2023-03-15T17:07:07.395Z,10.00
2023-03-15T17:10:34.834Z,12.70
2023-03-15T17:14:02.278Z,12.50
2023-03-15T17:17:33.189Z,12.00
2023-03-15T17:21:01.016Z,13.30
2023-03-15T17:24:28.414Z,14.00
2023-03-15T17:27:55.655Z,16.80
2023-03-15T17:31:25.790Z,28.10
2023-03-15T17:34:58.945Z,38.10
2023-03-15T17:38:32.187Z,39.40
2023-03-15T17:42:00.265Z,37.40
2023-03-15T17:45:30.265Z,27.30
2023-03-15T17:48:58.139Z,30.00
2023-03-15T17:52:25.436Z,26.10
2023-03-15T17:55:53.959Z,29.00
2023-03-15T17:59:21.887Z,28.80
2023-03-15T18:02:55.710Z,32.70
2023-03-15T18:06:25.157Z,40.40
2023-03-15T18:09:53.435Z,46.80
2023-03-15T18:13:23.747Z,463.20
2023-03-15T18:16:51.814Z,634.70
2023-03-15T18:20:22.376Z,350.40
2023-03-15T18:23:51.189Z,581.10
2023-03-15T18:27:20.025Z,615.30
2023-03-15T18:34:32.635Z,193.10
2023-03-15T18:38:00.537Z,115.60
2023-03-15T18:41:28.899Z,144.00
2023-03-15T18:44:59.146Z,135.20
2023-03-15T18:48:40.004Z,162.00
2023-03-15T18:52:09.521Z,124.80
2023-03-15T18:55:37.581Z,116.40
2023-03-15T18:59:05.946Z,104.80
2023-03-15T19:02:34.185Z,68.40
2023-03-15T19:06:09.199Z,73.60
2023-03-15T19:09:36.880Z,68.20
2023-03-15T19:13:05.931Z,61.90
2023-03-15T19:16:33.680Z,52.90
2023-03-15T19:20:01.171Z,104.20
2023-03-15T19:23:29.955Z,66.20
2023-03-15T19:26:59.253Z,60.90
2023-03-15T19:30:27.858Z,93.90
2023-03-15T19:33:56.096Z,89.20
2023-03-15T19:37:23.182Z,72.00
2023-03-15T19:40:55.032Z,55.80
2023-03-15T19:44:23.500Z,60.10
2023-03-15T19:47:50.983Z,61.80
2023-03-15T19:51:18.067Z,67.40
2023-03-15T19:54:47.204Z,61.80
2023-03-15T19:58:14.807Z,62.50
2023-03-15T20:01:42.350Z,71.10
2023-03-15T20:05:12.819Z,61.20
2023-03-15T20:08:40.578Z,80.00
2023-03-15T20:12:09.307Z,113.80
2023-03-15T20:15:36.657Z,74.50
2023-03-15T20:19:04.042Z,74.50
2023-03-15T20:22:32.967Z,68.90
2023-03-15T20:26:09.951Z,181.10
2023-03-15T20:29:37.040Z,172.40
2023-03-15T20:33:04.217Z,178.60
2023-03-15T20:36:33.480Z,113.80
2023-03-15T20:40:00.840Z,118.80
2023-03-15T20:43:28.613Z,83.50
2023-03-15T20:46:58.917Z,73.00
2023-03-15T20:50:26.027Z,65.60
2023-03-15T20:53:53.258Z,69.60
2023-03-15T20:57:20.826Z,59.80
2023-03-15T21:00:48.050Z,64.80
2023-03-15T21:04:16.230Z,74.90
2023-03-15T21:07:44.150Z,62.40
2023-03-15T21:11:11.155Z,65.80
2023-03-15T21:14:38.524Z,71.00
2023-03-15T21:18:05.621Z,67.00
2023-03-15T21:21:32.692Z,77.50
2023-03-15T21:25:00.514Z,74.10
2023-03-15T21:28:27.928Z,72.80
2023-03-15T21:31:55.212Z,66.60
2023-03-15T21:35:23.252Z,73.80
2023-03-15T21:38:50.529Z,76.80
2023-03-15T21:42:17.959Z,91.00
2023-03-15T21:45:45.221Z,84.40
2023-03-15T21:49:13.410Z,79.20
2023-03-15T21:52:40.518Z,111.90
2023-03-15T21:56:08.786Z,88.20
2023-03-15T21:59:36.630Z,90.60
2023-03-15T22:03:04.219Z,85.70
2023-03-15T22:06:32.488Z,81.00
2023-03-15T22:09:59.529Z,91.40
2023-03-15T22:13:27.669Z,105.50
2023-03-15T22:16:55.025Z,93.30
2023-03-15T22:20:25.003Z,81.90
2023-03-15T22:23:53.199Z,73.20
2023-03-15T22:27:20.456Z,96.40
2023-03-15T22:30:50.425Z,91.70
2023-03-15T22:34:17.568Z,108.40
2023-03-15T22:37:44.691Z,128.30
2023-03-15T22:41:14.107Z,117.00
2023-03-15T22:44:41.264Z,122.10
2023-03-15T22:48:08.936Z,135.60
2023-03-15T22:51:35.963Z,127.80
2023-03-15T22:55:03.169Z,117.50
2023-03-15T22:58:30.511Z,92.00
2023-03-15T23:01:57.939Z,66.80
2023-03-15T23:05:25.243Z,53.40
2023-03-15T23:08:52.348Z,44.90
2023-03-15T23:12:24.333Z,44.60
2023-03-15T23:15:55.626Z,39.10
2023-03-15T23:19:23.446Z,40.80
2023-03-15T23:22:51.113Z,43.90
2023-03-15T23:26:20.482Z,48.50
2023-03-15T23:33:23.257Z,32.50
2023-03-15T23:36:50.543Z,38.90
2023-03-15T23:40:17.829Z,39.90
2023-03-15T23:43:44.825Z,62.00
2023-03-15T23:47:12.766Z,72.40
2023-03-15T23:50:44.424Z,60.20
2023-03-15T23:54:13.017Z,44.30
2023-03-15T23:57:40.371Z,42.60
